< < Back
Terminal Aerodrome Forecast


Current Version              Previous Versions:   1  2  3  4  5  6  7  8  9  

Terminal Aerodrome Forecast

691
FTUS42 KCAE 292323
TAFCAE
TAF
KCAE 292323Z 3000/3024 36010G15KT P6SM VCSH SCT025 BKN040
     FM300300 01007KT P6SM SCT007 OVC015
      TEMPO 3008/3012 BKN007
     FM301500 34007KT P6SM VCSH SCT007 OVC020
     FM301800 31007KT P6SM VCSH BKN040 OVC100=

Latest METAR

944
SAUS80 KWBC 301400
MTRCAE
METAR KCAE 301356Z 34007KT 10SM BKN016 BKN028 OVC045 24/18 A2997 RMK AO2
SLP146 T02390183 $


USA.gov is the U.S. government's official web portal to all federal, state and local government web resources and services.